createdAt,value
2017-12-23T00:01:20.515Z,27.20
2017-12-23T00:07:24.472Z,26.00
2017-12-23T00:13:28.858Z,24.27
2017-12-23T00:19:32.399Z,26.20
2017-12-23T00:25:36.729Z,24.23
2017-12-23T00:31:40.237Z,28.87
2017-12-23T00:37:44.515Z,25.60
2017-12-23T00:43:48.894Z,29.47
2017-12-23T00:49:53.246Z,27.57
2017-12-23T00:55:57.245Z,26.87
2017-12-23T01:02:00.744Z,29.43
2017-12-23T01:08:05.885Z,29.30
2017-12-23T01:14:10.138Z,29.57
2017-12-23T01:20:13.631Z,28.53
2017-12-23T01:26:17.395Z,30.50
2017-12-23T01:32:21.049Z,29.87
2017-12-23T01:38:25.885Z,31.77
2017-12-23T01:44:29.485Z,30.10
2017-12-23T01:50:33.061Z,30.57
2017-12-23T01:56:36.581Z,28.77
2017-12-23T02:02:40.101Z,28.77
2017-12-23T02:08:43.582Z,30.03
2017-12-23T02:14:47.191Z,28.60
2017-12-23T02:20:51.166Z,27.53
2017-12-23T02:26:55.828Z,30.33
2017-12-23T02:32:59.526Z,27.93
2017-12-23T02:39:03.030Z,28.10
2017-12-23T02:45:07.270Z,26.27
2017-12-23T02:51:10.825Z,23.23
2017-12-23T02:57:15.067Z,26.43
2017-12-23T03:03:18.588Z,25.47
2017-12-23T03:09:22.855Z,25.37
2017-12-23T03:15:26.450Z,25.47
2017-12-23T03:21:29.980Z,23.70
2017-12-23T03:27:33.504Z,23.57
2017-12-23T03:33:37.138Z,20.87
2017-12-23T03:39:40.722Z,21.80
2017-12-23T03:45:45.072Z,17.53
2017-12-23T03:51:48.619Z,18.90
2017-12-23T03:57:52.383Z,21.03
2017-12-23T04:03:56.230Z,19.07
2017-12-23T04:09:59.725Z,19.50
2017-12-23T04:16:04.105Z,29.63
2017-12-23T04:22:08.758Z,24.93
2017-12-23T04:28:12.407Z,23.23
2017-12-23T04:34:15.879Z,24.53
2017-12-23T04:40:19.406Z,22.77
2017-12-23T04:46:23.104Z,23.97
2017-12-23T04:52:27.352Z,24.90
2017-12-23T04:58:30.845Z,26.67
2017-12-23T05:04:34.367Z,23.93
2017-12-23T05:10:38.644Z,23.60
2017-12-23T05:16:43.006Z,24.77
2017-12-23T05:22:47.286Z,24.77
2017-12-23T05:28:52.043Z,27.07
2017-12-23T05:34:56.687Z,28.00
2017-12-23T05:41:00.248Z,26.27
2017-12-23T05:47:03.747Z,29.23
2017-12-23T05:53:07.232Z,25.37
2017-12-23T05:59:10.746Z,28.43
2017-12-23T06:05:14.237Z,26.70
2017-12-23T06:11:17.779Z,22.40
2017-12-23T06:17:22.650Z,25.47
2017-12-23T06:23:26.232Z,23.90
2017-12-23T06:29:30.525Z,22.93
2017-12-23T06:35:34.097Z,16.20
2017-12-23T06:41:37.605Z,18.73
2017-12-23T06:47:41.934Z,18.40
2017-12-23T06:53:45.472Z,17.83
2017-12-23T06:59:49.153Z,18.40
2017-12-23T07:05:52.699Z,17.80
2017-12-23T07:11:56.332Z,15.47
2017-12-23T07:17:59.939Z,15.50
2017-12-23T07:24:03.441Z,11.93
2017-12-23T07:30:06.979Z,13.77
2017-12-23T07:36:10.511Z,14.37
2017-12-23T07:42:13.993Z,7.13
2017-12-23T07:48:17.483Z,8.70
2017-12-23T07:54:21.059Z,7.30
2017-12-23T08:00:24.544Z,5.73
2017-12-23T08:06:28.030Z,3.70
2017-12-23T08:12:31.535Z,3.70
2017-12-23T08:18:35.313Z,5.90
2017-12-23T08:24:39.717Z,6.23
2017-12-23T08:30:43.221Z,4.80
2017-12-23T08:36:46.709Z,4.20
2017-12-23T08:42:50.181Z,4.20
2017-12-23T08:48:53.863Z,2.90
2017-12-23T08:54:57.355Z,4.80
2017-12-23T09:01:01.627Z,4.87
2017-12-23T09:07:05.914Z,4.53
2017-12-23T09:13:09.440Z,4.37
2017-12-23T09:19:12.981Z,6.30
2017-12-23T09:25:16.503Z,5.50
2017-12-23T09:31:20.036Z,5.27
2017-12-23T09:37:23.814Z,5.10
2017-12-23T09:43:27.306Z,5.93
2017-12-23T09:49:30.797Z,5.73
2017-12-23T09:55:35.015Z,5.83
2017-12-23T10:01:38.511Z,7.43
2017-12-23T10:07:42.236Z,5.57
2017-12-23T10:13:45.713Z,6.13
2017-12-23T10:19:49.257Z,7.67
2017-12-23T10:25:52.797Z,8.43
2017-12-23T10:31:56.423Z,11.33
2017-12-23T10:37:59.940Z,11.13
2017-12-23T10:44:03.445Z,12.10
2017-12-23T10:50:06.959Z,12.77
2017-12-23T10:56:11.204Z,8.20
2017-12-23T11:02:14.689Z,10.87
2017-12-23T11:08:18.210Z,8.20
2017-12-23T11:14:23.296Z,5.43
2017-12-23T11:20:26.771Z,9.93
2017-12-23T11:26:30.306Z,10.73
2017-12-23T11:32:33.826Z,9.50
2017-12-23T11:38:37.488Z,5.47
2017-12-23T11:44:41.137Z,8.33
2017-12-23T11:50:44.744Z,11.07
2017-12-23T11:56:48.217Z,10.43
2017-12-23T12:02:53.039Z,14.73
2017-12-23T12:08:56.771Z,11.63
2017-12-23T12:15:00.329Z,13.40
2017-12-23T12:21:04.190Z,13.87
2017-12-23T12:27:08.566Z,19.33
2017-12-23T12:33:12.827Z,17.57
2017-12-23T12:39:17.084Z,17.13
2017-12-23T12:45:21.034Z,17.30
2017-12-23T12:51:24.910Z,19.37
2017-12-23T12:57:28.637Z,25.50
2017-12-23T13:03:32.332Z,24.97
2017-12-23T13:09:36.726Z,21.63
2017-12-23T13:15:41.193Z,24.50
2017-12-23T13:21:45.445Z,28.83
2017-12-23T13:27:49.016Z,27.27
2017-12-23T13:33:52.699Z,29.97
2017-12-23T13:39:56.539Z,26.73
2017-12-23T13:46:00.793Z,25.27
2017-12-23T13:52:04.253Z,26.37
2017-12-23T13:58:07.770Z,25.30
2017-12-23T14:04:11.311Z,17.83
2017-12-23T14:10:14.904Z,25.93
2017-12-23T14:16:18.509Z,20.83
2017-12-23T14:22:22.319Z,22.73
2017-12-23T14:28:25.927Z,23.23
2017-12-23T14:34:29.607Z,20.87
2017-12-23T14:40:33.146Z,26.50
2017-12-23T14:46:36.706Z,26.03
2017-12-23T14:52:40.203Z,21.97
2017-12-23T14:58:43.814Z,24.50
2017-12-23T15:04:47.341Z,22.20
2017-12-23T15:10:51.883Z,22.87
2017-12-23T15:16:55.727Z,25.40
2017-12-23T15:22:59.442Z,24.87
2017-12-23T15:29:03.717Z,22.47
2017-12-23T15:35:07.996Z,20.40
2017-12-23T15:41:12.430Z,20.93
2017-12-23T15:47:15.967Z,20.83
2017-12-23T15:53:19.535Z,18.77
2017-12-23T15:59:23.477Z,19.50
2017-12-23T16:05:26.984Z,19.03
2017-12-23T16:11:30.637Z,17.70
2017-12-23T16:17:34.894Z,20.17
2017-12-23T16:23:38.390Z,22.07
2017-12-23T16:29:41.973Z,22.33
2017-12-23T16:35:45.804Z,22.37
2017-12-23T16:41:49.350Z,20.07
2017-12-23T17:04:07.925Z,22.20
2017-12-23T17:10:11.558Z,23.67
2017-12-23T17:16:15.168Z,20.93
2017-12-23T17:22:19.911Z,15.80
2017-12-23T17:45:34.358Z,18.50
2017-12-23T17:51:38.651Z,15.63
2017-12-23T17:57:42.147Z,12.70
2017-12-23T18:03:45.830Z,20.20
2017-12-23T18:09:49.329Z,15.07
2017-12-23T18:15:53.128Z,19.90
2017-12-23T18:21:56.977Z,17.13
2017-12-23T18:28:00.619Z,13.40
2017-12-23T18:34:04.165Z,20.10
2017-12-23T18:40:07.649Z,19.73
2017-12-23T18:46:11.240Z,19.00
2017-12-23T18:52:15.487Z,21.80
2017-12-23T18:58:19.817Z,25.00
2017-12-23T19:04:24.648Z,21.53
2017-12-23T19:10:28.226Z,17.27
2017-12-23T19:16:50.584Z,21.60
2017-12-23T19:22:54.202Z,21.37
2017-12-23T19:28:57.744Z,18.33
2017-12-23T19:35:02.036Z,19.60
2017-12-23T19:41:05.538Z,19.20
2017-12-23T19:47:09.073Z,19.13
2017-12-23T19:53:12.593Z,21.23
2017-12-23T19:59:16.138Z,16.70
2017-12-23T20:05:20.502Z,20.53
2017-12-23T20:11:24.449Z,19.47
2017-12-23T20:17:28.100Z,19.63
2017-12-23T20:23:31.641Z,21.07
2017-12-23T20:29:35.430Z,19.93
2017-12-23T20:35:38.999Z,15.07
2017-12-23T20:41:43.351Z,17.93
2017-12-23T20:47:46.865Z,18.30
2017-12-23T20:53:50.357Z,16.90
2017-12-23T20:59:55.609Z,19.50
2017-12-23T21:05:59.133Z,14.60
2017-12-23T21:12:03.444Z,16.60
2017-12-23T21:18:06.954Z,15.70
2017-12-23T21:24:11.338Z,13.63
2017-12-23T21:30:14.848Z,11.33
2017-12-23T21:36:18.372Z,15.47
2017-12-23T21:42:22.501Z,13.00
2017-12-23T21:48:26.749Z,9.13
2017-12-23T21:54:30.302Z,14.97
2017-12-23T22:00:33.885Z,14.47
2017-12-23T22:06:38.178Z,14.57
2017-12-23T22:12:41.673Z,11.43
2017-12-23T22:18:45.180Z,13.37
2017-12-23T22:24:49.586Z,16.23
2017-12-23T22:30:53.341Z,14.03
2017-12-23T22:36:56.929Z,16.10
2017-12-23T22:43:00.456Z,15.40
2017-12-23T22:49:03.969Z,15.10
2017-12-23T22:55:08.331Z,13.60
2017-12-23T23:01:11.939Z,11.60
2017-12-23T23:07:15.444Z,14.40
2017-12-23T23:13:20.004Z,8.40
2017-12-23T23:19:24.483Z,14.20
2017-12-23T23:25:28.226Z,10.80
2017-12-23T23:31:31.717Z,12.07
2017-12-23T23:37:35.998Z,12.40
2017-12-23T23:43:40.265Z,11.67
2017-12-23T23:49:44.709Z,9.90
2017-12-23T23:55:48.400Z,11.67
